createdAt,value
2023-02-15T00:02:02.277Z,14.50
2023-02-15T00:04:47.415Z,13.47
2023-02-15T00:07:16.702Z,12.00
2023-02-15T00:09:44.712Z,11.50
2023-02-15T00:12:14.099Z,12.10
2023-02-15T00:14:42.001Z,11.37
2023-02-15T00:17:10.026Z,11.80
2023-02-15T00:19:38.016Z,10.73
2023-02-15T00:22:05.942Z,11.60
2023-02-15T00:24:33.959Z,12.27
2023-02-15T00:27:01.954Z,12.50
2023-02-15T00:29:31.321Z,11.50
2023-02-15T00:31:59.241Z,13.13
2023-02-15T00:34:28.089Z,13.17
2023-02-15T00:36:56.082Z,12.40
2023-02-15T00:39:24.985Z,12.47
2023-02-15T00:41:52.997Z,13.70
2023-02-15T00:44:21.031Z,12.67
2023-02-15T00:46:50.390Z,11.77
2023-02-15T00:49:18.288Z,12.63
2023-02-15T00:51:46.283Z,11.83
2023-02-15T00:54:14.237Z,12.93
2023-02-15T00:56:42.200Z,13.97
2023-02-15T00:59:10.824Z,12.97
2023-02-15T01:01:38.879Z,12.57
2023-02-15T01:04:08.357Z,12.40
2023-02-15T01:06:36.308Z,12.90
2023-02-15T01:09:04.286Z,12.87
2023-02-15T01:11:32.312Z,13.37
2023-02-15T01:14:00.574Z,13.13
2023-02-15T01:16:29.329Z,14.27
2023-02-15T01:18:57.732Z,13.80
2023-02-15T01:21:27.717Z,13.70
2023-02-15T01:23:55.712Z,12.30
2023-02-15T01:26:23.741Z,13.53
2023-02-15T01:28:51.664Z,14.10
2023-02-15T01:31:22.018Z,13.53
2023-02-15T01:33:50.412Z,13.13
2023-02-15T01:36:20.783Z,13.33
2023-02-15T01:38:50.588Z,13.03
2023-02-15T01:41:25.274Z,13.53
2023-02-15T01:43:54.267Z,14.27
2023-02-15T01:46:24.500Z,13.87
2023-02-15T01:48:56.439Z,13.43
2023-02-15T01:51:26.004Z,14.17
2023-02-15T01:53:58.512Z,14.93
2023-02-15T01:56:28.604Z,14.43
2023-02-15T01:58:59.056Z,14.20
2023-02-15T02:01:28.291Z,14.27
2023-02-15T02:04:00.780Z,13.53
2023-02-15T02:06:29.362Z,14.00
2023-02-15T02:08:59.143Z,15.10
2023-02-15T02:11:27.262Z,14.13
2023-02-15T02:13:56.227Z,15.13
2023-02-15T02:16:27.535Z,14.43
2023-02-15T02:19:06.772Z,14.67
2023-02-15T02:21:49.904Z,15.07
2023-02-15T02:24:33.464Z,14.30
2023-02-15T02:27:20.079Z,14.00
2023-02-15T02:30:04.139Z,13.60
2023-02-15T02:32:55.877Z,14.77
2023-02-15T02:35:28.947Z,14.80
2023-02-15T02:38:02.473Z,13.87
2023-02-15T02:40:33.516Z,14.20
2023-02-15T02:43:03.854Z,15.30
2023-02-15T02:45:38.325Z,13.90
2023-02-15T02:48:09.008Z,16.40
2023-02-15T02:50:40.996Z,14.53
2023-02-15T02:53:09.426Z,13.70
2023-02-15T02:55:40.990Z,14.97
2023-02-15T02:58:10.981Z,14.37
2023-02-15T03:00:40.528Z,14.77
2023-02-15T03:03:10.429Z,14.87
2023-02-15T03:05:42.008Z,16.23
2023-02-15T03:08:11.113Z,15.90
2023-02-15T03:10:40.379Z,15.03
2023-02-15T03:13:08.457Z,14.73
2023-02-15T03:15:52.356Z,15.00
2023-02-15T03:18:22.593Z,14.67
2023-02-15T03:20:52.926Z,15.73
2023-02-15T03:23:23.273Z,14.93
2023-02-15T03:25:53.467Z,17.13
2023-02-15T03:28:23.239Z,14.03
2023-02-15T03:30:54.252Z,16.47
2023-02-15T03:33:24.181Z,15.60
2023-02-15T03:35:55.519Z,15.87
2023-02-15T03:38:27.947Z,15.70
2023-02-15T03:41:11.630Z,16.70
2023-02-15T03:43:42.561Z,16.40
2023-02-15T03:46:14.524Z,15.80
2023-02-15T03:48:44.096Z,15.93
2023-02-15T03:51:34.155Z,17.37
2023-02-15T03:54:03.355Z,15.47
2023-02-15T03:56:31.325Z,15.67
2023-02-15T03:59:16.912Z,15.83
2023-02-15T04:02:00.571Z,16.53
2023-02-15T04:04:34.521Z,16.83
2023-02-15T04:07:04.760Z,14.60
2023-02-15T04:09:50.457Z,17.50
2023-02-15T04:12:18.372Z,16.23
2023-02-15T04:15:03.620Z,15.60
2023-02-15T04:17:31.540Z,15.10
2023-02-15T04:20:16.880Z,15.70
2023-02-15T04:23:04.690Z,15.00
2023-02-15T04:25:32.702Z,15.47
2023-02-15T04:28:00.640Z,15.43
2023-02-15T04:30:28.809Z,17.07
2023-02-15T04:32:58.226Z,16.47
2023-02-15T04:35:26.857Z,16.63
2023-02-15T04:37:56.956Z,16.43
2023-02-15T04:40:24.928Z,17.67
2023-02-15T04:42:52.836Z,17.60
2023-02-15T04:45:21.442Z,17.17
2023-02-15T04:47:49.443Z,17.00
2023-02-15T04:50:17.372Z,18.00
2023-02-15T04:52:45.446Z,18.23
2023-02-15T04:55:15.339Z,17.90
2023-02-15T04:57:43.314Z,18.00
2023-02-15T05:00:11.826Z,18.80
2023-02-15T05:02:40.088Z,17.87
2023-02-15T05:05:08.432Z,17.77
2023-02-15T05:07:36.927Z,17.47
2023-02-15T05:10:05.264Z,18.87
2023-02-15T05:12:34.831Z,18.67
2023-02-15T05:15:02.792Z,18.43
2023-02-15T05:17:31.060Z,17.83
2023-02-15T05:19:59.135Z,18.13
2023-02-15T05:22:27.208Z,18.23
2023-02-15T05:25:12.483Z,18.13
2023-02-15T05:27:59.058Z,18.07
2023-02-15T05:30:27.173Z,16.13
2023-02-15T05:32:56.147Z,17.20
2023-02-15T05:35:24.585Z,18.30
2023-02-15T05:37:52.674Z,19.07
2023-02-15T05:40:20.843Z,17.57
2023-02-15T05:42:50.265Z,18.33
2023-02-15T05:45:18.454Z,17.90
2023-02-15T05:47:47.121Z,18.13
2023-02-15T05:50:17.017Z,19.67
2023-02-15T05:52:47.813Z,19.30
2023-02-15T05:55:15.925Z,20.23
2023-02-15T05:57:43.944Z,19.03
2023-02-15T06:00:15.113Z,18.60
2023-02-15T06:02:43.163Z,19.10
2023-02-15T06:05:11.396Z,19.17
2023-02-15T06:07:39.484Z,17.37
2023-02-15T06:10:08.108Z,19.23
2023-02-15T06:12:36.076Z,19.83
2023-02-15T06:15:04.070Z,19.23
2023-02-15T06:17:33.471Z,18.27
2023-02-15T06:20:01.423Z,18.27
2023-02-15T06:22:29.529Z,18.93
2023-02-15T06:24:57.447Z,19.93
2023-02-15T06:27:25.439Z,20.77
2023-02-15T06:29:53.421Z,20.20
2023-02-15T06:32:21.457Z,20.47
2023-02-15T06:34:50.789Z,20.10
2023-02-15T06:37:18.725Z,20.60
2023-02-15T06:39:46.771Z,18.97
2023-02-15T06:42:14.823Z,20.13
2023-02-15T06:44:42.768Z,20.63
2023-02-15T06:47:10.716Z,20.03
2023-02-15T06:49:38.795Z,20.40
2023-02-15T06:52:08.236Z,20.87
2023-02-15T06:54:36.214Z,20.87
2023-02-15T06:57:04.200Z,21.67
2023-02-15T06:59:32.244Z,21.77
2023-02-15T07:02:00.169Z,21.50
2023-02-15T07:04:29.854Z,22.80
2023-02-15T07:06:58.139Z,22.07
2023-02-15T07:09:27.767Z,22.47
2023-02-15T07:12:13.085Z,22.33
2023-02-15T07:14:41.671Z,20.57
2023-02-15T07:17:27.463Z,22.80
2023-02-15T07:19:57.686Z,21.43
2023-02-15T07:22:25.668Z,21.60
2023-02-15T07:24:55.986Z,21.57
2023-02-15T07:27:23.984Z,22.17
2023-02-15T07:29:52.132Z,22.50
2023-02-15T07:32:20.213Z,22.37
2023-02-15T07:34:48.246Z,22.73
2023-02-15T07:37:16.268Z,22.67
2023-02-15T07:39:44.304Z,22.47
2023-02-15T07:42:15.263Z,23.23
2023-02-15T07:44:45.953Z,23.27
2023-02-15T07:47:14.716Z,23.10
2023-02-15T07:49:44.928Z,23.17
2023-02-15T07:52:12.946Z,22.40
2023-02-15T07:54:41.010Z,23.27
2023-02-15T07:57:08.929Z,22.47
2023-02-15T07:59:38.301Z,22.87
2023-02-15T08:02:07.894Z,21.13
2023-02-15T08:04:35.827Z,21.90
2023-02-15T08:07:03.832Z,20.47
2023-02-15T08:09:31.805Z,21.40
2023-02-15T08:11:59.797Z,22.20
2023-02-15T08:14:29.594Z,21.00
2023-02-15T08:17:03.656Z,21.93
2023-02-15T08:19:32.930Z,21.00
2023-02-15T08:22:01.762Z,20.53
2023-02-15T08:24:31.206Z,21.87
2023-02-15T08:26:59.552Z,20.83
2023-02-15T08:29:28.549Z,20.90
2023-02-15T08:31:59.895Z,20.40
2023-02-15T08:34:29.843Z,21.60
2023-02-15T08:36:58.621Z,20.43
2023-02-15T08:39:26.644Z,20.27
2023-02-15T08:41:54.633Z,21.47
2023-02-15T08:44:23.592Z,18.97
2023-02-15T08:46:51.746Z,22.33
2023-02-15T08:49:20.993Z,20.17
2023-02-15T08:51:51.028Z,21.57
2023-02-15T08:54:19.851Z,21.13
2023-02-15T08:56:48.268Z,20.07
2023-02-15T08:59:17.379Z,19.80
2023-02-15T09:01:45.608Z,20.60
2023-02-15T09:04:14.286Z,19.93
2023-02-15T09:06:42.810Z,19.53
2023-02-15T09:09:12.948Z,20.30
2023-02-15T09:11:42.095Z,19.20
2023-02-15T09:14:10.974Z,19.00
2023-02-15T09:16:39.771Z,19.90
2023-02-15T09:19:08.320Z,19.67
2023-02-15T09:21:37.487Z,20.33
2023-02-15T09:24:06.400Z,19.40
2023-02-15T09:26:37.086Z,20.03
2023-02-15T09:29:05.266Z,19.93
2023-02-15T09:31:34.703Z,19.73
2023-02-15T09:34:03.089Z,18.00
2023-02-15T09:36:31.837Z,18.63
2023-02-15T09:39:00.663Z,19.87
2023-02-15T09:41:46.538Z,19.33
2023-02-15T09:44:19.454Z,17.40
2023-02-15T09:46:53.466Z,18.90
2023-02-15T09:49:24.723Z,19.70
2023-02-15T09:52:02.575Z,18.63
2023-02-15T09:54:36.027Z,17.40
2023-02-15T09:57:08.931Z,17.83
2023-02-15T09:59:40.184Z,17.80
2023-02-15T10:02:17.390Z,16.60
2023-02-15T10:05:01.511Z,17.40
2023-02-15T10:07:40.796Z,17.20
2023-02-15T10:10:12.629Z,18.43
2023-02-15T10:12:48.088Z,21.00
2023-02-15T10:15:30.711Z,16.53
2023-02-15T10:18:14.565Z,16.77
2023-02-15T10:20:48.482Z,16.77
2023-02-15T10:23:23.966Z,16.90
2023-02-15T10:25:54.027Z,17.17
2023-02-15T10:28:32.749Z,16.80
2023-02-15T10:31:05.744Z,16.13
2023-02-15T10:33:40.228Z,17.20
2023-02-15T10:36:23.020Z,16.93
2023-02-15T10:38:55.226Z,19.23
2023-02-15T10:41:29.308Z,17.33
2023-02-15T10:44:07.339Z,17.17
2023-02-15T10:46:50.137Z,17.83
2023-02-15T10:49:28.454Z,16.43
2023-02-15T10:52:04.108Z,16.80
2023-02-15T10:54:37.816Z,17.30
2023-02-15T10:57:08.745Z,16.83
2023-02-15T10:59:43.213Z,17.30
2023-02-15T11:02:14.683Z,17.67
2023-02-15T11:04:48.049Z,18.07
2023-02-15T11:07:18.633Z,17.93
2023-02-15T11:09:47.620Z,16.47
2023-02-15T11:12:17.457Z,17.57
2023-02-15T11:14:49.299Z,16.07
2023-02-15T11:17:19.279Z,16.43
2023-02-15T11:19:50.555Z,16.40
2023-02-15T11:22:18.686Z,16.40
2023-02-15T11:24:48.208Z,16.17
2023-02-15T11:27:20.199Z,15.73
2023-02-15T11:29:52.861Z,16.20
2023-02-15T11:32:22.673Z,15.73
2023-02-15T11:34:53.915Z,17.17
2023-02-15T11:37:23.665Z,17.60
2023-02-15T11:39:53.748Z,16.63
2023-02-15T11:42:23.415Z,16.40
2023-02-15T11:44:58.048Z,16.07
2023-02-15T11:47:25.987Z,16.43
2023-02-15T11:49:54.008Z,16.47
2023-02-15T11:52:22.112Z,15.13
2023-02-15T11:54:51.965Z,14.13
2023-02-15T11:57:23.136Z,14.70
2023-02-15T11:59:53.844Z,16.80
2023-02-15T12:02:23.912Z,15.00
2023-02-15T12:04:54.591Z,14.93
2023-02-15T12:07:26.789Z,15.13
2023-02-15T12:09:57.884Z,15.10
2023-02-15T12:12:27.310Z,12.40
2023-02-15T12:14:55.997Z,13.57
2023-02-15T12:17:26.425Z,13.37
2023-02-15T12:19:55.058Z,12.57
2023-02-15T12:22:25.316Z,13.50
2023-02-15T12:24:54.510Z,14.90
2023-02-15T12:27:24.200Z,14.43
2023-02-15T12:29:53.740Z,14.40
2023-02-15T12:32:24.405Z,13.43
2023-02-15T12:34:56.925Z,13.87
2023-02-15T12:37:26.352Z,14.57
2023-02-15T12:39:55.700Z,15.63
2023-02-15T12:42:24.895Z,16.07
2023-02-15T12:45:00.567Z,14.33
2023-02-15T12:47:29.377Z,14.33
2023-02-15T12:50:17.950Z,12.83
2023-02-15T12:52:48.686Z,13.10
2023-02-15T12:55:26.569Z,14.00
2023-02-15T12:58:10.763Z,14.73
2023-02-15T13:00:38.731Z,14.07
2023-02-15T13:03:06.994Z,14.97
2023-02-15T13:05:37.656Z,14.47
2023-02-15T13:08:10.878Z,14.30
2023-02-15T13:10:41.749Z,13.73
2023-02-15T13:13:12.426Z,13.30
2023-02-15T13:15:42.484Z,13.13
2023-02-15T13:18:15.255Z,13.53
2023-02-15T13:20:46.330Z,13.37
2023-02-15T13:23:23.930Z,14.87
2023-02-15T13:25:52.798Z,13.83
2023-02-15T13:28:24.932Z,12.60
2023-02-15T13:30:53.420Z,11.47
2023-02-15T13:33:27.467Z,11.90
2023-02-15T13:36:08.871Z,11.53
2023-02-15T13:38:47.565Z,12.83
2023-02-15T13:41:17.404Z,12.00
2023-02-15T13:43:52.757Z,12.97
2023-02-15T13:46:26.061Z,11.77
2023-02-15T13:49:01.844Z,11.73
2023-02-15T13:51:35.356Z,9.83
2023-02-15T13:54:18.091Z,95.50
2023-02-15T13:56:52.075Z,29.70
2023-02-15T13:59:34.793Z,12.43
2023-02-15T14:02:14.276Z,10.00
2023-02-15T14:04:53.224Z,10.63
2023-02-15T14:07:33.553Z,11.03
2023-02-15T14:10:08.776Z,9.70
2023-02-15T14:12:40.581Z,10.10
2023-02-15T14:15:11.727Z,10.97
2023-02-15T14:17:45.947Z,10.90
2023-02-15T14:20:19.945Z,10.90
2023-02-15T14:22:51.622Z,9.70
2023-02-15T14:25:22.806Z,10.27
2023-02-15T14:27:56.868Z,9.63
2023-02-15T14:30:27.865Z,10.70
2023-02-15T14:32:57.181Z,8.87
2023-02-15T14:35:27.083Z,9.73
2023-02-15T14:38:00.672Z,10.50
2023-02-15T14:40:52.352Z,10.33
2023-02-15T14:43:27.163Z,10.23
2023-02-15T14:45:56.163Z,9.53
2023-02-15T14:48:26.919Z,9.37
2023-02-15T14:50:54.949Z,10.37
2023-02-15T14:53:40.991Z,8.67
2023-02-15T14:56:29.795Z,9.60
2023-02-15T14:59:02.827Z,9.07
2023-02-15T15:01:32.047Z,9.00
2023-02-15T15:04:01.728Z,9.30
2023-02-15T15:06:31.597Z,8.90
2023-02-15T15:09:02.453Z,9.17
2023-02-15T15:11:44.511Z,8.70
2023-02-15T15:14:15.102Z,8.30
2023-02-15T15:16:50.939Z,7.47
2023-02-15T15:19:52.820Z,7.63
2023-02-15T15:22:21.909Z,7.23
2023-02-15T15:24:52.123Z,7.63
2023-02-15T15:27:38.523Z,9.80
2023-02-15T15:30:33.638Z,8.33
2023-02-15T15:33:05.206Z,8.73
2023-02-15T15:35:37.286Z,7.80
2023-02-15T15:38:23.106Z,6.87
2023-02-15T15:41:02.845Z,6.67
2023-02-15T15:43:48.739Z,6.63
2023-02-15T15:46:32.490Z,5.77
2023-02-15T15:49:05.178Z,5.77
2023-02-15T15:51:34.350Z,5.27
2023-02-15T15:54:03.933Z,5.30
2023-02-15T15:56:34.461Z,5.50
2023-02-15T15:59:03.636Z,6.00
2023-02-15T16:01:32.910Z,5.20
2023-02-15T16:04:01.847Z,6.17
2023-02-15T16:06:36.149Z,5.53
2023-02-15T16:09:18.636Z,6.40
2023-02-15T16:11:47.936Z,5.77
2023-02-15T16:14:17.512Z,6.60
2023-02-15T16:16:51.709Z,5.83
2023-02-15T16:19:24.987Z,5.60
2023-02-15T16:21:54.543Z,5.70
2023-02-15T16:24:29.304Z,6.30
2023-02-15T16:27:10.655Z,5.77
2023-02-15T16:29:38.601Z,5.30
2023-02-15T16:32:08.046Z,5.30
2023-02-15T16:34:36.029Z,5.53
2023-02-15T16:37:19.221Z,5.87
2023-02-15T16:39:49.164Z,6.00
2023-02-15T16:42:17.699Z,5.33
2023-02-15T16:44:46.066Z,5.60
2023-02-15T16:47:18.255Z,5.70
2023-02-15T16:49:48.107Z,5.90
2023-02-15T16:52:17.397Z,5.73
2023-02-15T16:54:46.871Z,4.93
2023-02-15T16:57:20.996Z,4.90
2023-02-15T16:59:49.532Z,5.50
2023-02-15T17:02:40.243Z,5.40
2023-02-15T17:05:23.995Z,7.20
2023-02-15T17:07:53.279Z,6.00
2023-02-15T17:10:33.321Z,5.90
2023-02-15T17:13:05.421Z,7.07
2023-02-15T17:15:35.388Z,7.40
2023-02-15T17:18:05.883Z,7.87
2023-02-15T17:20:37.081Z,7.70
2023-02-15T17:23:05.727Z,9.40
2023-02-15T17:25:38.140Z,8.73
2023-02-15T17:28:07.310Z,8.73
2023-02-15T17:30:36.760Z,8.73
2023-02-15T17:33:05.676Z,9.37
2023-02-15T17:35:34.101Z,9.40
2023-02-15T17:38:04.147Z,12.07
2023-02-15T17:40:33.023Z,10.80
2023-02-15T17:43:02.843Z,10.90
2023-02-15T17:45:34.082Z,10.83
2023-02-15T17:48:04.012Z,9.93
2023-02-15T17:50:32.673Z,10.60
2023-02-15T17:53:01.632Z,15.10
2023-02-15T17:55:40.350Z,11.73
2023-02-15T17:58:11.082Z,9.90
2023-02-15T18:00:58.044Z,10.93
2023-02-15T18:03:43.916Z,10.77
2023-02-15T18:06:30.088Z,10.67
2023-02-15T18:09:15.561Z,10.97
2023-02-15T18:11:48.742Z,10.83
2023-02-15T18:14:18.209Z,10.73
2023-02-15T18:16:46.454Z,10.93
2023-02-15T18:19:18.954Z,10.90
2023-02-15T18:21:47.340Z,11.00
2023-02-15T18:24:19.030Z,10.33
2023-02-15T18:26:47.097Z,10.97
2023-02-15T18:29:15.310Z,10.07
2023-02-15T18:31:45.638Z,10.93
2023-02-15T18:34:20.775Z,10.67
2023-02-15T18:36:48.868Z,10.93
2023-02-15T18:39:26.541Z,11.33
2023-02-15T18:41:54.718Z,11.30
2023-02-15T18:44:22.997Z,11.37
2023-02-15T18:46:52.412Z,10.33
2023-02-15T18:49:20.417Z,12.80
2023-02-15T18:51:48.655Z,12.37
2023-02-15T18:54:21.165Z,11.80
2023-02-15T18:56:54.059Z,12.13
2023-02-15T18:59:23.162Z,13.50
2023-02-15T19:01:52.632Z,13.47
2023-02-15T19:04:20.619Z,12.33
2023-02-15T19:06:49.730Z,12.80
2023-02-15T19:09:19.280Z,12.40
2023-02-15T19:11:49.813Z,11.47
2023-02-15T19:14:24.116Z,11.03
2023-02-15T19:16:53.717Z,12.83
2023-02-15T19:19:21.974Z,12.90
2023-02-15T19:21:50.080Z,11.97
2023-02-15T19:24:20.017Z,13.57
2023-02-15T19:26:48.485Z,14.40
2023-02-15T19:29:17.690Z,17.57
2023-02-15T19:31:45.738Z,16.60
2023-02-15T19:34:16.989Z,18.27
2023-02-15T19:36:45.888Z,21.40
2023-02-15T19:39:22.607Z,23.00
2023-02-15T19:41:50.557Z,22.60
2023-02-15T19:44:18.941Z,20.83
2023-02-15T19:46:47.000Z,20.00
2023-02-15T19:49:16.403Z,17.63
2023-02-15T19:51:44.373Z,14.73
2023-02-15T19:54:19.994Z,15.13
2023-02-15T19:56:47.950Z,12.80
2023-02-15T19:59:22.153Z,14.73
2023-02-15T20:01:50.166Z,13.80
2023-02-15T20:04:19.927Z,14.20
2023-02-15T20:06:49.006Z,15.73
2023-02-15T20:09:21.590Z,15.97
2023-02-15T20:11:49.593Z,15.90
2023-02-15T20:14:17.608Z,16.03
2023-02-15T20:16:46.182Z,16.23
2023-02-15T20:19:15.493Z,14.77
2023-02-15T20:21:46.136Z,15.60
2023-02-15T20:24:16.748Z,15.50
2023-02-15T20:26:44.833Z,15.43
2023-02-15T20:29:14.268Z,15.67
2023-02-15T20:31:42.367Z,16.23
2023-02-15T20:34:10.570Z,15.63
2023-02-15T20:36:39.644Z,15.47
2023-02-15T20:39:13.731Z,14.40
2023-02-15T20:41:48.064Z,14.03
2023-02-15T20:44:25.910Z,13.93
2023-02-15T20:46:55.268Z,14.27
2023-02-15T20:49:24.527Z,14.00
2023-02-15T20:51:55.180Z,12.40
2023-02-15T20:54:25.479Z,12.80
2023-02-15T20:56:54.422Z,11.30
2023-02-15T20:59:24.115Z,10.80
2023-02-15T21:01:53.129Z,9.33
2023-02-15T21:04:23.289Z,9.10
2023-02-15T21:06:51.238Z,7.33
2023-02-15T21:09:19.309Z,8.50
2023-02-15T21:11:51.022Z,9.43
2023-02-15T21:14:20.329Z,8.17
2023-02-15T21:16:48.643Z,7.33
2023-02-15T21:19:18.591Z,8.73
2023-02-15T21:21:46.989Z,8.07
2023-02-15T21:24:16.335Z,9.37
2023-02-15T21:26:46.443Z,8.93
2023-02-15T21:29:19.817Z,9.47
2023-02-15T21:31:48.583Z,8.67
2023-02-15T21:34:18.229Z,8.83
2023-02-15T21:36:46.916Z,8.43
2023-02-15T21:39:16.453Z,9.47
2023-02-15T21:42:04.564Z,8.33
2023-02-15T21:44:51.652Z,9.37
2023-02-15T21:47:37.874Z,9.27
2023-02-15T21:50:27.572Z,9.17
2023-02-15T21:52:54.733Z,10.00
2023-02-15T21:55:22.647Z,9.43
2023-02-15T21:57:50.593Z,10.07
2023-02-15T22:00:20.906Z,9.97
2023-02-15T22:02:49.750Z,9.87
2023-02-15T22:05:18.372Z,10.60
2023-02-15T22:07:46.624Z,10.53
2023-02-15T22:10:14.849Z,10.40
2023-02-15T22:12:43.690Z,10.30
2023-02-15T22:15:20.488Z,10.93
2023-02-15T22:17:48.796Z,10.93
2023-02-15T22:20:17.789Z,11.23
2023-02-15T22:22:45.741Z,10.70
2023-02-15T22:25:15.479Z,10.90
2023-02-15T22:27:43.954Z,12.97
2023-02-15T22:30:18.735Z,13.00
2023-02-15T22:32:48.198Z,13.90
2023-02-15T22:35:18.175Z,14.33
2023-02-15T22:37:46.110Z,14.67
2023-02-15T22:40:15.828Z,14.87
2023-02-15T22:42:44.348Z,14.70
2023-02-15T22:45:17.090Z,14.60
2023-02-15T22:47:45.702Z,15.40
2023-02-15T22:50:19.618Z,17.13
2023-02-15T22:52:47.600Z,15.37
2023-02-15T22:55:16.153Z,16.30
2023-02-15T22:57:44.449Z,15.13
2023-02-15T23:00:16.427Z,16.10
2023-02-15T23:02:44.395Z,16.83
2023-02-15T23:05:19.540Z,16.40
2023-02-15T23:07:47.974Z,18.90
2023-02-15T23:10:22.389Z,16.63
2023-02-15T23:13:04.658Z,17.73
2023-02-15T23:15:32.638Z,15.73
2023-02-15T23:18:02.137Z,17.60
2023-02-15T23:20:31.478Z,16.97
2023-02-15T23:22:59.476Z,16.53
2023-02-15T23:25:28.222Z,16.27
2023-02-15T23:27:58.962Z,16.73
2023-02-15T23:30:27.105Z,16.37
2023-02-15T23:32:56.071Z,15.10
2023-02-15T23:35:24.032Z,16.93
2023-02-15T23:37:53.425Z,14.87
2023-02-15T23:40:39.804Z,16.33
2023-02-15T23:43:08.376Z,18.10
2023-02-15T23:45:38.201Z,18.07
2023-02-15T23:48:30.962Z,18.53
2023-02-15T23:50:59.157Z,17.37
2023-02-15T23:53:28.548Z,17.50
2023-02-15T23:55:58.024Z,17.63
2023-02-15T23:58:29.126Z,18.73
